Eems Carrier — PFHD — position and weather

sailwx.info

Track history (hours):
 
Tides and Currents Weather Stations Pressure Air Temp Water Temp Dewpoint Dewpoint Depression Visibility Wind Speed Wind Dir Waves Ship Positions

Eems Carrier

Last reported at 2018-Feb-18 18:00 UTC. Time now 2018-Feb-18 18:28 UTC.
Position N 51°54' E 004°28'.

Length 84 m; draft 3.9 m.

Type: Cargo ship. MMSI: 245257000.

Date/timePositionNaut miles runAvg speedWind from/ knotsBaromVisibWave heightAir tempDewpointWater temp
2018-Feb-18 18:00N 51°54' E 004°28'0 0.0
2018-Feb-18 17:30N 51°54' E 004°28'0 0.0
2018-Feb-18 17:00N 51°54' E 004°28'0 0.0
2018-Feb-18 16:27N 51°54' E 004°28'0 0.0
2018-Feb-18 16:00N 51°54' E 004°28'0 0.0
2018-Feb-18 15:30N 51°54' E 004°28'0 0.0
2018-Feb-18 15:00N 51°54' E 004°28'0 0.0
2018-Feb-18 14:30N 51°54' E 004°28'0 0.1
2018-Feb-18 14:00N 51°54' E 004°28'1 1.7
2018-Feb-18 13:30N 51°54' E 004°27'4 7.9
2018-Feb-18 13:00N 51°54' E 004°21'4 7.6
2018-Feb-18 12:30N 51°55' E 004°15'4 7.3
2018-Feb-18 12:00N 51°57' E 004°10'3 7.0
2018-Feb-18 11:30N 51°59' E 004°05'4 7.2
2018-Feb-18 11:00N 51°60' E 003°60'4 7.8
2018-Feb-18 10:30N 51°60' E 003°53'4 8.3
2018-Feb-18 09:59N 51°59' E 003°47'8 7.1
2018-Feb-18 08:52N 51°57' E 003°34'15 7.4
2018-Feb-18 06:53N 51°53' E 003°11'3 7.6
2018-Feb-18 06:29N 51°53' E 003°06'4 7.5
2018-Feb-18 06:00N 51°52' E 003°01'12 7.5
2018-Feb-18 04:24N 51°49' E 002°42'3 7.3
2018-Feb-18 04:00N 51°48' E 002°37'7 7.1
2018-Feb-18 03:01N 51°43' E 002°30'0 7.3
2018-Feb-18 02:59N 51°43' E 002°30'4 7.6
2018-Feb-18 02:30N 51°40' E 002°26'4 7.6
2018-Feb-18 02:00N 51°37' E 002°22'4 7.6
2018-Feb-18 01:30N 51°34' E 002°18'4 7.6
2018-Feb-18 00:58N 51°31' E 002°14'4 7.9
2018-Feb-18 00:28N 51°28' E 002°10'4 7.9
2018-Feb-18 00:00N 51°24' E 002°08'4 7.7
2018-Feb-17 23:29N 51°20' E 002°07'4 8.0
2018-Feb-17 23:00N 51°17' E 002°05'7 6.8
2018-Feb-17 22:00N 51°12' E 001°58'3 6.4
2018-Feb-17 21:30N 51°10' E 001°54'3 6.2
2018-Feb-17 20:59N 51°08' E 001°50'3 6.1
2018-Feb-17 20:30N 51°07' E 001°46'3 5.9
2018-Feb-17 20:00N 51°05' E 001°42'3 5.0
2018-Feb-17 19:29N 51°03' E 001°39'3 5.8
2018-Feb-17 18:58N 51°01' E 001°35'3 6.4
2018-Feb-17 18:30N 50°59' E 001°32'3 6.5
2018-Feb-17 18:00N 50°57' E 001°28'3 6.2
2018-Feb-17 17:30N 50°54' E 001°25'5 7.0
2018-Feb-17 16:44N 50°49' E 001°23'149 8.7
2018-Feb-16 23:38N 50°27' W 002°30'1 9.5
2018-Feb-16 23:30N 50°27' W 002°32'5 9.7
2018-Feb-16 23:00N 50°28' W 002°39'510.1
2018-Feb-16 22:30N 50°28' W 002°47'510.2
2018-Feb-16 22:00N 50°29' W 002°55'510.3
2018-Feb-16 21:30N 50°29' W 003°03'510.3
2018-Feb-16 21:00N 50°30' W 003°11'510.3
2018-Feb-16 20:30N 50°31' W 003°19'5 9.1
2018-Feb-16 20:00N 50°32' W 003°26'3 5.6
2018-Feb-16 19:31N 50°33' W 003°30'0 0.3
2018-Feb-16 19:00N 50°33' W 003°30'0 0.0
2018-Feb-16 18:30N 50°33' W 003°30'0 0.0
2018-Feb-16 18:00N 50°33' W 003°30'0 0.0
2018-Feb-16 17:30N 50°33' W 003°30'0 0.0
2018-Feb-16 17:00N 50°33' W 003°30'0 0.0
2018-Feb-16 16:24N 50°33' W 003°30'0 0.0
2018-Feb-16 16:00N 50°33' W 003°30'0 0.0
2018-Feb-16 15:30N 50°33' W 003°30'0 0.0
2018-Feb-16 15:00N 50°33' W 003°30'0 0.0
2018-Feb-16 14:30N 50°33' W 003°30'0 0.0
2018-Feb-16 14:00N 50°33' W 003°30'0 0.0
2018-Feb-16 13:30N 50°33' W 003°30'0 0.0
2018-Feb-16 13:00N 50°33' W 003°30'0 0.0
2018-Feb-16 12:30N 50°33' W 003°30'0 0.0
2018-Feb-16 12:00N 50°33' W 003°30'0 0.0
2018-Feb-16 11:30N 50°33' W 003°30'0 0.0
2018-Feb-16 11:00N 50°33' W 003°30'0 0.0
2018-Feb-16 10:30N 50°33' W 003°30'0 0.0
2018-Feb-16 10:00N 50°33' W 003°30'0 0.0
2018-Feb-16 09:30N 50°33' W 003°30'0 0.0
2018-Feb-16 09:00N 50°33' W 003°30'0 0.0
2018-Feb-16 08:30N 50°33' W 003°30'0 0.0
2018-Feb-16 08:00N 50°33' W 003°30'0 0.9
2018-Feb-16 07:30N 50°32' W 003°30'2 3.4
2018-Feb-16 07:00N 50°32' W 003°27'2 4.6
2018-Feb-16 06:30N 50°32' W 003°24'0 0.5
2018-Feb-16 06:00N 50°31' W 003°23'0 0.5
2018-Feb-16 05:30N 50°31' W 003°23'2 4.1
2018-Feb-16 05:00N 50°31' W 003°20'2 4.5
2018-Feb-16 04:30N 50°31' W 003°16'3 5.1
2018-Feb-16 04:00N 50°31' W 003°12'3 6.8
2018-Feb-16 03:30N 50°30' W 003°07'3 6.7
2018-Feb-16 03:00N 50°30' W 003°02'3 6.7
2018-Feb-16 02:30N 50°29' W 002°57'3 6.7
2018-Feb-16 02:00N 50°29' W 002°51'4 7.0
2018-Feb-16 01:30N 50°28' W 002°46'28 7.0
2018-Feb-15 21:27N 50°26' W 002°01'3 6.6
2018-Feb-15 20:57N 50°26' W 001°56'3 6.4
2018-Feb-15 20:30N 50°27' W 001°52'6 6.1
2018-Feb-15 19:29N 50°27' W 001°42'8 7.1
2018-Feb-15 18:18N 50°29' W 001°29'7 6.6
2018-Feb-15 17:16N 50°30' W 001°19'2 7.5
2018-Feb-15 16:56N 50°30' W 001°15'4 8.2
2018-Feb-15 16:27N 50°32' W 001°09'610.5
2018-Feb-15 15:55N 50°34' W 001°01'3 8.1
2018-Feb-15 15:30N 50°37' W 000°58'510.7
2018-Feb-15 15:00N 50°42' W 001°01'510.6
2018-Feb-15 14:30N 50°45' W 001°07'5 9.3
2018-Feb-15 14:00N 50°47' W 001°14'510.5
2018-Feb-15 13:30N 50°51' W 001°20'5 9.1
2018-Feb-15 13:00N 50°54' W 001°25'1 0.8
2018-Feb-15 12:23N 50°54' W 001°26'0 0.0
2018-Feb-15 11:56N 50°54' W 001°26'0 0.0
2018-Feb-15 11:14N 50°54' W 001°26'0 0.0
2018-Feb-15 10:56N 50°54' W 001°26'0 0.0
2018-Feb-15 10:29N 50°54' W 001°26'0 0.0
2018-Feb-15 09:11N 50°54' W 001°26'0 0.0
2018-Feb-15 08:59N 50°54' W 001°26'0 0.0
2018-Feb-15 08:29N 50°54' W 001°26'0 0.0
2018-Feb-15 07:56N 50°54' W 001°26'0 0.0
2018-Feb-15 07:14N 50°54' W 001°26'0 0.0
2018-Feb-15 06:17N 50°54' W 001°26'0 0.0
2018-Feb-15 03:47N 50°54' W 001°26'0 0.0
2018-Feb-15 03:20N 50°54' W 001°26'0 0.0
2018-Feb-15 02:47N 50°54' W 001°26'0 0.0
2018-Feb-15 02:29N 50°54' W 001°26'0 0.0
2018-Feb-15 01:32N 50°54' W 001°26'0 0.0
2018-Feb-15 01:20N 50°54' W 001°26'0 0.0
2018-Feb-14 23:23N 50°54' W 001°26'0 0.0
2018-Feb-14 22:53N 50°54' W 001°26'0 0.0
2018-Feb-14 21:34N 50°54' W 001°26'0 0.0
2018-Feb-14 21:04N 50°54' W 001°26'0 0.0
2018-Feb-14 20:52N 50°54' W 001°26'0 0.0
2018-Feb-14 20:19N 50°54' W 001°26'0 0.0
2018-Feb-14 19:49N 50°54' W 001°26'0 0.0
2018-Feb-14 19:22N 50°54' W 001°26'0 0.0
2018-Feb-14 18:52N 50°54' W 001°26'0 0.0
2018-Feb-14 18:22N 50°54' W 001°26'0 0.0
2018-Feb-14 17:40N 50°54' W 001°26'0 0.0
2018-Feb-14 17:25N 50°54' W 001°26'0 0.0
2018-Feb-14 16:55N 50°54' W 001°26'0 0.0
2018-Feb-14 16:19N 50°54' W 001°26'0 0.0
2018-Feb-14 15:10N 50°54' W 001°26'0 0.0
2018-Feb-14 13:28N 50°54' W 001°26'0 0.0
2018-Feb-14 12:52N 50°54' W 001°26'0 0.0
2018-Feb-14 12:28N 50°54' W 001°26'0 0.0
2018-Feb-14 11:55N 50°54' W 001°26'0 0.0
2018-Feb-14 10:25N 50°54' W 001°26'0 0.0
2018-Feb-14 09:58N 50°54' W 001°26'0 0.0
2018-Feb-14 09:28N 50°54' W 001°26'0 0.0
2018-Feb-14 08:55N 50°54' W 001°26'0 0.0
2018-Feb-14 08:25N 50°54' W 001°26'0 0.0
2018-Feb-14 07:58N 50°54' W 001°26'0 0.0
2018-Feb-14 07:28N 50°54' W 001°26'0 0.0
2018-Feb-14 06:58N 50°54' W 001°26'0 0.0
2018-Feb-14 06:28N 50°54' W 001°26'0 0.0
2018-Feb-14 05:58N 50°54' W 001°26'0 0.0
2018-Feb-14 05:28N 50°54' W 001°26'0 0.0
2018-Feb-14 04:58N 50°54' W 001°26'0 0.0
2018-Feb-14 04:28N 50°54' W 001°26'0 0.0
2018-Feb-14 03:58N 50°54' W 001°26'0 0.0
2018-Feb-14 03:19N 50°54' W 001°26'0 0.0
2018-Feb-14 02:49N 50°54' W 001°26'0 0.0
2018-Feb-14 02:19N 50°54' W 001°26'0 0.0
2018-Feb-14 01:49N 50°54' W 001°26'0 0.0
2018-Feb-14 01:19N 50°54' W 001°26'0 0.0
2018-Feb-14 00:49N 50°54' W 001°26'0 0.0
2018-Feb-14 00:19N 50°54' W 001°26'0 0.0
2018-Feb-13 23:31N 50°54' W 001°26'0 0.0
2018-Feb-13 23:19N 50°54' W 001°26'0 0.0
2018-Feb-13 22:49N 50°54' W 001°26'0 0.0
2018-Feb-13 22:19N 50°54' W 001°26'0 0.0
2018-Feb-13 21:37N 50°54' W 001°26'0 0.0
2018-Feb-13 21:19N 50°54' W 001°26'0 0.0
2018-Feb-13 20:49N 50°54' W 001°26'0 0.0
2018-Feb-13 20:19N 50°54' W 001°26'0 0.0
2018-Feb-13 19:52N 50°54' W 001°26'0 0.0
2018-Feb-13 19:19N 50°54' W 001°26'0 0.0
2018-Feb-13 18:52N 50°54' W 001°26'0 0.0
2018-Feb-13 18:22N 50°54' W 001°26'0 0.0
2018-Feb-13 17:52N 50°54' W 001°26'0 0.0
2018-Feb-13 17:25N 50°54' W 001°26'0 0.0
2018-Feb-13 16:55N 50°54' W 001°26'0 0.0
2018-Feb-13 05:09N 50°54' W 001°26'0 0.0
2018-Feb-13 04:39N 50°54' W 001°26'0 0.0
2018-Feb-13 04:21N 50°54' W 001°26'0 0.0
2018-Feb-13 03:57N 50°54' W 001°26'0 0.0
2018-Feb-13 03:27N 50°54' W 001°26'0 0.0
2018-Feb-13 02:57N 50°54' W 001°26'0 0.0
2018-Feb-13 02:27N 50°54' W 001°26'0 0.0
2018-Feb-13 01:24N 50°54' W 001°26'0 0.0
2018-Feb-13 00:54N 50°54' W 001°26'0 0.0
2018-Feb-13 00:12N 50°54' W 001°26'0 0.0
2018-Feb-12 23:54N 50°54' W 001°26'0 0.0
2018-Feb-12 23:24N 50°54' W 001°26'0 0.0
2018-Feb-12 22:54N 50°54' W 001°26'0 0.0
2018-Feb-12 22:30N 50°54' W 001°26'0 0.0
2018-Feb-12 22:00N 50°54' W 001°26'0 0.0
2018-Feb-12 21:30N 50°54' W 001°26'0 0.0
2018-Feb-12 21:00N 50°54' W 001°26'0 0.0
2018-Feb-12 20:30N 50°54' W 001°26'0 0.0
2018-Feb-12 20:00N 50°54' W 001°26'0 0.0
2018-Feb-12 19:30N 50°54' W 001°26'0 0.0
2018-Feb-12 19:00N 50°54' W 001°26'0 0.0
2018-Feb-12 18:30N 50°54' W 001°26'0 0.0
2018-Feb-12 18:00N 50°54' W 001°26'0 0.0
2018-Feb-12 17:30N 50°54' W 001°26'0 0.0
2018-Feb-12 17:00N 50°54' W 001°26'0 0.6
2018-Feb-12 16:30N 50°54' W 001°26'4 7.3
2018-Feb-12 16:00N 50°52' W 001°22'5 9.6
2018-Feb-12 15:31N 50°48' W 001°16'4 8.6
2018-Feb-12 15:00N 50°46' W 001°10'3 6.8
2018-Feb-12 14:30N 50°45' W 001°05'3 6.2
2018-Feb-12 14:00N 50°42' W 001°02'3 6.1
2018-Feb-12 13:30N 50°40' W 000°60'3 6.0
2018-Feb-12 12:59N 50°37' W 000°57'13 6.1
2018-Feb-12 10:49N 50°34' W 000°37'2 7.2
2018-Feb-12 10:29N 50°34' W 000°33'4 7.8
2018-Feb-12 09:59N 50°33' W 000°27'4 8.0
2018-Feb-12 09:30N 50°33' W 000°21'4 8.3
2018-Feb-12 09:00N 50°33' W 000°14'4 8.3
2018-Feb-12 08:30N 50°32' W 000°08'4 7.5
2018-Feb-12 08:00N 50°32' W 000°02'4 7.3
2018-Feb-12 07:30N 50°33' E 000°04'3 7.1
2018-Feb-12 07:00N 50°34' E 000°09'3 6.8
2018-Feb-12 06:30N 50°35' E 000°14'3 6.4
2018-Feb-12 06:00N 50°36' E 000°19'3 6.1
2018-Feb-12 05:29N 50°36' E 000°24'3 6.4
2018-Feb-12 05:00N 50°37' E 000°29'3 6.4
2018-Feb-12 04:30N 50°38' E 000°33'3 6.2
2018-Feb-12 04:00N 50°39' E 000°38'3 6.9
2018-Feb-12 03:30N 50°42' E 000°42'5 9.5
2018-Feb-12 03:00N 50°44' E 000°48'7 9.8
2018-Feb-12 02:16N 50°49' E 000°58'13 9.9
2018-Feb-12 00:57N 50°57' E 001°13'5 9.4
2018-Feb-12 00:28N 50°60' E 001°19'5 8.9
2018-Feb-11 23:53N 51°03' E 001°25'3 8.6
2018-Feb-11 23:30N 51°05' E 001°29'4 8.3
2018-Feb-11 23:00N 51°08' E 001°34'4 7.8
2018-Feb-11 22:30N 51°10' E 001°39'4 7.6
2018-Feb-11 22:00N 51°13' E 001°44'4 7.5
2018-Feb-11 21:30N 51°16' E 001°47'4 7.8
2018-Feb-11 21:01N 51°19' E 001°50'4 7.9
2018-Feb-11 20:31N 51°23' E 001°53'4 8.6
2018-Feb-11 20:00N 51°27' E 001°56'4 9.0
2018-Feb-11 19:30N 51°30' E 002°01'5 8.9
2018-Feb-11 19:00N 51°33' E 002°06'5 9.2
2018-Feb-11 18:30N 51°37' E 002°11'5 9.3
2018-Feb-11 18:00N 51°40' E 002°16'144 5.6
2018-Feb-10 16:15N 53°30' E 004°49'2 8.0
2018-Feb-10 15:57N 53°31' E 004°53'136 8.8
2018-Feb-10 00:27N 53°57' E 008°38'613.2
2018-Feb-10 00:01N 53°52' E 008°43'612.5
2018-Feb-09 23:30N 53°51' E 008°54'612.5
2018-Feb-09 23:00N 53°52' E 009°04'312.0
2018-Feb-09 22:46N 53°53' E 009°09'311.8
2018-Feb-09 22:30N 53°53' E 009°14'10 9.9
2018-Feb-09 21:31N 53°45' E 009°24'5 9.3
2018-Feb-09 21:01N 53°42' E 009°30'4 8.8
2018-Feb-09 20:31N 53°38' E 009°32'8 8.2
2018-Feb-09 19:31N 53°34' E 009°44'4 8.1
2018-Feb-09 19:01N 53°33' E 009°51'6 0.3
2018-Feb-09 02:00N 53°30' E 009°59'0 0.0
2018-Feb-09 01:30N 53°30' E 009°59'0 0.0
2018-Feb-09 00:30N 53°30' E 009°59'0 0.0
2018-Feb-09 00:00N 53°30' E 009°59'0 0.0
2018-Feb-08 23:30N 53°30' E 009°59'0 0.0
2018-Feb-08 23:00N 53°30' E 009°59'0 0.0
2018-Feb-08 22:30N 53°30' E 009°59'0 0.0
2018-Feb-08 21:30N 53°30' E 009°59'0 0.0
2018-Feb-08 21:00N 53°30' E 009°59'0 0.0
2018-Feb-08 20:30N 53°30' E 009°59'0 0.0
2018-Feb-08 20:00N 53°30' E 009°59'0 0.1
2018-Feb-08 18:00N 53°30' E 009°59'  
Track history (hours):
 
Tides and Currents Weather Stations Pressure Air Temp Water Temp Dewpoint Dewpoint Depression Visibility Wind Speed Wind Dir Waves Ship Positions

Eems Carrier

Last reported at 2018-Feb-18 18:00 UTC. Time now 2018-Feb-18 18:28 UTC.
Position N 51°54' E 004°28'.

Length 84 m; draft 3.9 m.

Type: Cargo ship. MMSI: 245257000.

Date/timePositionNaut miles runAvg speedWind from/ knotsBaromVisibWave heightAir tempDewpointWater temp
2018-Feb-18 18:00N 51°54' E 004°28'0 0.0
2018-Feb-18 17:30N 51°54' E 004°28'0 0.0
2018-Feb-18 17:00N 51°54' E 004°28'0 0.0
2018-Feb-18 16:27N 51°54' E 004°28'0 0.0
2018-Feb-18 16:00N 51°54' E 004°28'0 0.0
2018-Feb-18 15:30N 51°54' E 004°28'0 0.0
2018-Feb-18 15:00N 51°54' E 004°28'0 0.0
2018-Feb-18 14:30N 51°54' E 004°28'0 0.1
2018-Feb-18 14:00N 51°54' E 004°28'1 1.7
2018-Feb-18 13:30N 51°54' E 004°27'4 7.9
2018-Feb-18 13:00N 51°54' E 004°21'4 7.6
2018-Feb-18 12:30N 51°55' E 004°15'4 7.3
2018-Feb-18 12:00N 51°57' E 004°10'3 7.0
2018-Feb-18 11:30N 51°59' E 004°05'4 7.2
2018-Feb-18 11:00N 51°60' E 003°60'4 7.8
2018-Feb-18 10:30N 51°60' E 003°53'4 8.3
2018-Feb-18 09:59N 51°59' E 003°47'8 7.1
2018-Feb-18 08:52N 51°57' E 003°34'15 7.4
2018-Feb-18 06:53N 51°53' E 003°11'3 7.6
2018-Feb-18 06:29N 51°53' E 003°06'4 7.5
2018-Feb-18 06:00N 51°52' E 003°01'12 7.5
2018-Feb-18 04:24N 51°49' E 002°42'3 7.3
2018-Feb-18 04:00N 51°48' E 002°37'7 7.1
2018-Feb-18 03:01N 51°43' E 002°30'0 7.3
2018-Feb-18 02:59N 51°43' E 002°30'4 7.6
2018-Feb-18 02:30N 51°40' E 002°26'4 7.6
2018-Feb-18 02:00N 51°37' E 002°22'4 7.6
2018-Feb-18 01:30N 51°34' E 002°18'4 7.6
2018-Feb-18 00:58N 51°31' E 002°14'4 7.9
2018-Feb-18 00:28N 51°28' E 002°10'4 7.9
2018-Feb-18 00:00N 51°24' E 002°08'4 7.7
2018-Feb-17 23:29N 51°20' E 002°07'4 8.0
2018-Feb-17 23:00N 51°17' E 002°05'7 6.8
2018-Feb-17 22:00N 51°12' E 001°58'3 6.4
2018-Feb-17 21:30N 51°10' E 001°54'3 6.2
2018-Feb-17 20:59N 51°08' E 001°50'3 6.1
2018-Feb-17 20:30N 51°07' E 001°46'3 5.9
2018-Feb-17 20:00N 51°05' E 001°42'3 5.0
2018-Feb-17 19:29N 51°03' E 001°39'3 5.8
2018-Feb-17 18:58N 51°01' E 001°35'3 6.4
2018-Feb-17 18:30N 50°59' E 001°32'3 6.5
2018-Feb-17 18:00N 50°57' E 001°28'3 6.2
2018-Feb-17 17:30N 50°54' E 001°25'5 7.0
2018-Feb-17 16:44N 50°49' E 001°23'149 8.7
2018-Feb-16 23:38N 50°27' W 002°30'1 9.5
2018-Feb-16 23:30N 50°27' W 002°32'5 9.7
2018-Feb-16 23:00N 50°28' W 002°39'510.1
2018-Feb-16 22:30N 50°28' W 002°47'510.2
2018-Feb-16 22:00N 50°29' W 002°55'510.3
2018-Feb-16 21:30N 50°29' W 003°03'510.3
2018-Feb-16 21:00N 50°30' W 003°11'510.3
2018-Feb-16 20:30N 50°31' W 003°19'5 9.1
2018-Feb-16 20:00N 50°32' W 003°26'3 5.6
2018-Feb-16 19:31N 50°33' W 003°30'0 0.3
2018-Feb-16 19:00N 50°33' W 003°30'0 0.0
2018-Feb-16 18:30N 50°33' W 003°30'0 0.0
2018-Feb-16 18:00N 50°33' W 003°30'0 0.0
2018-Feb-16 17:30N 50°33' W 003°30'0 0.0
2018-Feb-16 17:00N 50°33' W 003°30'0 0.0
2018-Feb-16 16:24N 50°33' W 003°30'0 0.0
2018-Feb-16 16:00N 50°33' W 003°30'0 0.0
2018-Feb-16 15:30N 50°33' W 003°30'0 0.0
2018-Feb-16 15:00N 50°33' W 003°30'0 0.0
2018-Feb-16 14:30N 50°33' W 003°30'0 0.0
2018-Feb-16 14:00N 50°33' W 003°30'0 0.0
2018-Feb-16 13:30N 50°33' W 003°30'0 0.0
2018-Feb-16 13:00N 50°33' W 003°30'0 0.0
2018-Feb-16 12:30N 50°33' W 003°30'0 0.0
2018-Feb-16 12:00N 50°33' W 003°30'0 0.0
2018-Feb-16 11:30N 50°33' W 003°30'0 0.0
2018-Feb-16 11:00N 50°33' W 003°30'0 0.0
2018-Feb-16 10:30N 50°33' W 003°30'0 0.0
2018-Feb-16 10:00N 50°33' W 003°30'0 0.0
2018-Feb-16 09:30N 50°33' W 003°30'0 0.0
2018-Feb-16 09:00N 50°33' W 003°30'0 0.0
2018-Feb-16 08:30N 50°33' W 003°30'0 0.0
2018-Feb-16 08:00N 50°33' W 003°30'0 0.9
2018-Feb-16 07:30N 50°32' W 003°30'2 3.4
2018-Feb-16 07:00N 50°32' W 003°27'2 4.6
2018-Feb-16 06:30N 50°32' W 003°24'0 0.5
2018-Feb-16 06:00N 50°31' W 003°23'0 0.5
2018-Feb-16 05:30N 50°31' W 003°23'2 4.1
2018-Feb-16 05:00N 50°31' W 003°20'2 4.5
2018-Feb-16 04:30N 50°31' W 003°16'3 5.1
2018-Feb-16 04:00N 50°31' W 003°12'3 6.8
2018-Feb-16 03:30N 50°30' W 003°07'3 6.7
2018-Feb-16 03:00N 50°30' W 003°02'3 6.7
2018-Feb-16 02:30N 50°29' W 002°57'3 6.7
2018-Feb-16 02:00N 50°29' W 002°51'4 7.0
2018-Feb-16 01:30N 50°28' W 002°46'28 7.0
2018-Feb-15 21:27N 50°26' W 002°01'3 6.6
2018-Feb-15 20:57N 50°26' W 001°56'3 6.4
2018-Feb-15 20:30N 50°27' W 001°52'6 6.1
2018-Feb-15 19:29N 50°27' W 001°42'8 7.1
2018-Feb-15 18:18N 50°29' W 001°29'7 6.6
2018-Feb-15 17:16N 50°30' W 001°19'2 7.5
2018-Feb-15 16:56N 50°30' W 001°15'4 8.2
2018-Feb-15 16:27N 50°32' W 001°09'610.5
2018-Feb-15 15:55N 50°34' W 001°01'3 8.1
2018-Feb-15 15:30N 50°37' W 000°58'510.7
2018-Feb-15 15:00N 50°42' W 001°01'510.6
2018-Feb-15 14:30N 50°45' W 001°07'5 9.3
2018-Feb-15 14:00N 50°47' W 001°14'510.5
2018-Feb-15 13:30N 50°51' W 001°20'5 9.1
2018-Feb-15 13:00N 50°54' W 001°25'1 0.8
2018-Feb-15 12:23N 50°54' W 001°26'0 0.0
2018-Feb-15 11:56N 50°54' W 001°26'0 0.0
2018-Feb-15 11:14N 50°54' W 001°26'0 0.0
2018-Feb-15 10:56N 50°54' W 001°26'0 0.0
2018-Feb-15 10:29N 50°54' W 001°26'0 0.0
2018-Feb-15 09:11N 50°54' W 001°26'0 0.0
2018-Feb-15 08:59N 50°54' W 001°26'0 0.0
2018-Feb-15 08:29N 50°54' W 001°26'0 0.0
2018-Feb-15 07:56N 50°54' W 001°26'0 0.0
2018-Feb-15 07:14N 50°54' W 001°26'0 0.0
2018-Feb-15 06:17N 50°54' W 001°26'0 0.0
2018-Feb-15 03:47N 50°54' W 001°26'0 0.0
2018-Feb-15 03:20N 50°54' W 001°26'0 0.0
2018-Feb-15 02:47N 50°54' W 001°26'0 0.0
2018-Feb-15 02:29N 50°54' W 001°26'0 0.0
2018-Feb-15 01:32N 50°54' W 001°26'0 0.0
2018-Feb-15 01:20N 50°54' W 001°26'0 0.0
2018-Feb-14 23:23N 50°54' W 001°26'0 0.0
2018-Feb-14 22:53N 50°54' W 001°26'0 0.0
2018-Feb-14 21:34N 50°54' W 001°26'0 0.0
2018-Feb-14 21:04N 50°54' W 001°26'0 0.0
2018-Feb-14 20:52N 50°54' W 001°26'0 0.0
2018-Feb-14 20:19N 50°54' W 001°26'0 0.0
2018-Feb-14 19:49N 50°54' W 001°26'0 0.0
2018-Feb-14 19:22N 50°54' W 001°26'0 0.0
2018-Feb-14 18:52N 50°54' W 001°26'0 0.0
2018-Feb-14 18:22N 50°54' W 001°26'0 0.0
2018-Feb-14 17:40N 50°54' W 001°26'0 0.0
2018-Feb-14 17:25N 50°54' W 001°26'0 0.0
2018-Feb-14 16:55N 50°54' W 001°26'0 0.0
2018-Feb-14 16:19N 50°54' W 001°26'0 0.0
2018-Feb-14 15:10N 50°54' W 001°26'0 0.0
2018-Feb-14 13:28N 50°54' W 001°26'0 0.0
2018-Feb-14 12:52N 50°54' W 001°26'0 0.0
2018-Feb-14 12:28N 50°54' W 001°26'0 0.0
2018-Feb-14 11:55N 50°54' W 001°26'0 0.0
2018-Feb-14 10:25N 50°54' W 001°26'0 0.0
2018-Feb-14 09:58N 50°54' W 001°26'0 0.0
2018-Feb-14 09:28N 50°54' W 001°26'0 0.0
2018-Feb-14 08:55N 50°54' W 001°26'0 0.0
2018-Feb-14 08:25N 50°54' W 001°26'0 0.0
2018-Feb-14 07:58N 50°54' W 001°26'0 0.0
2018-Feb-14 07:28N 50°54' W 001°26'0 0.0
2018-Feb-14 06:58N 50°54' W 001°26'0 0.0
2018-Feb-14 06:28N 50°54' W 001°26'0 0.0
2018-Feb-14 05:58N 50°54' W 001°26'0 0.0
2018-Feb-14 05:28N 50°54' W 001°26'0 0.0
2018-Feb-14 04:58N 50°54' W 001°26'0 0.0
2018-Feb-14 04:28N 50°54' W 001°26'0 0.0
2018-Feb-14 03:58N 50°54' W 001°26'0 0.0
2018-Feb-14 03:19N 50°54' W 001°26'0 0.0
2018-Feb-14 02:49N 50°54' W 001°26'0 0.0
2018-Feb-14 02:19N 50°54' W 001°26'0 0.0
2018-Feb-14 01:49N 50°54' W 001°26'0 0.0
2018-Feb-14 01:19N 50°54' W 001°26'0 0.0
2018-Feb-14 00:49N 50°54' W 001°26'0 0.0
2018-Feb-14 00:19N 50°54' W 001°26'0 0.0
2018-Feb-13 23:31N 50°54' W 001°26'0 0.0
2018-Feb-13 23:19N 50°54' W 001°26'0 0.0
2018-Feb-13 22:49N 50°54' W 001°26'0 0.0
2018-Feb-13 22:19N 50°54' W 001°26'0 0.0
2018-Feb-13 21:37N 50°54' W 001°26'0 0.0
2018-Feb-13 21:19N 50°54' W 001°26'0 0.0
2018-Feb-13 20:49N 50°54' W 001°26'0 0.0
2018-Feb-13 20:19N 50°54' W 001°26'0 0.0
2018-Feb-13 19:52N 50°54' W 001°26'0 0.0
2018-Feb-13 19:19N 50°54' W 001°26'0 0.0
2018-Feb-13 18:52N 50°54' W 001°26'0 0.0
2018-Feb-13 18:22N 50°54' W 001°26'0 0.0
2018-Feb-13 17:52N 50°54' W 001°26'0 0.0
2018-Feb-13 17:25N 50°54' W 001°26'0 0.0
2018-Feb-13 16:55N 50°54' W 001°26'0 0.0
2018-Feb-13 05:09N 50°54' W 001°26'0 0.0
2018-Feb-13 04:39N 50°54' W 001°26'0 0.0
2018-Feb-13 04:21N 50°54' W 001°26'0 0.0
2018-Feb-13 03:57N 50°54' W 001°26'0 0.0
2018-Feb-13 03:27N 50°54' W 001°26'0 0.0
2018-Feb-13 02:57N 50°54' W 001°26'0 0.0
2018-Feb-13 02:27N 50°54' W 001°26'0 0.0
2018-Feb-13 01:24N 50°54' W 001°26'0 0.0
2018-Feb-13 00:54N 50°54' W 001°26'0 0.0
2018-Feb-13 00:12N 50°54' W 001°26'0 0.0
2018-Feb-12 23:54N 50°54' W 001°26'0 0.0
2018-Feb-12 23:24N 50°54' W 001°26'0 0.0
2018-Feb-12 22:54N 50°54' W 001°26'0 0.0
2018-Feb-12 22:30N 50°54' W 001°26'0 0.0
2018-Feb-12 22:00N 50°54' W 001°26'0 0.0
2018-Feb-12 21:30N 50°54' W 001°26'0 0.0
2018-Feb-12 21:00N 50°54' W 001°26'0 0.0
2018-Feb-12 20:30N 50°54' W 001°26'0 0.0
2018-Feb-12 20:00N 50°54' W 001°26'0 0.0
2018-Feb-12 19:30N 50°54' W 001°26'0 0.0
2018-Feb-12 19:00N 50°54' W 001°26'0 0.0
2018-Feb-12 18:30N 50°54' W 001°26'0 0.0
2018-Feb-12 18:00N 50°54' W 001°26'0 0.0
2018-Feb-12 17:30N 50°54' W 001°26'0 0.0
2018-Feb-12 17:00N 50°54' W 001°26'0 0.6
2018-Feb-12 16:30N 50°54' W 001°26'4 7.3
2018-Feb-12 16:00N 50°52' W 001°22'5 9.6
2018-Feb-12 15:31N 50°48' W 001°16'4 8.6
2018-Feb-12 15:00N 50°46' W 001°10'3 6.8
2018-Feb-12 14:30N 50°45' W 001°05'3 6.2
2018-Feb-12 14:00N 50°42' W 001°02'3 6.1
2018-Feb-12 13:30N 50°40' W 000°60'3 6.0
2018-Feb-12 12:59N 50°37' W 000°57'13 6.1
2018-Feb-12 10:49N 50°34' W 000°37'2 7.2
2018-Feb-12 10:29N 50°34' W 000°33'4 7.8
2018-Feb-12 09:59N 50°33' W 000°27'4 8.0
2018-Feb-12 09:30N 50°33' W 000°21'4 8.3
2018-Feb-12 09:00N 50°33' W 000°14'4 8.3
2018-Feb-12 08:30N 50°32' W 000°08'4 7.5
2018-Feb-12 08:00N 50°32' W 000°02'4 7.3
2018-Feb-12 07:30N 50°33' E 000°04'3 7.1
2018-Feb-12 07:00N 50°34' E 000°09'3 6.8
2018-Feb-12 06:30N 50°35' E 000°14'3 6.4
2018-Feb-12 06:00N 50°36' E 000°19'3 6.1
2018-Feb-12 05:29N 50°36' E 000°24'3 6.4
2018-Feb-12 05:00N 50°37' E 000°29'3 6.4
2018-Feb-12 04:30N 50°38' E 000°33'3 6.2
2018-Feb-12 04:00N 50°39' E 000°38'3 6.9
2018-Feb-12 03:30N 50°42' E 000°42'5 9.5
2018-Feb-12 03:00N 50°44' E 000°48'7 9.8
2018-Feb-12 02:16N 50°49' E 000°58'13 9.9
2018-Feb-12 00:57N 50°57' E 001°13'5 9.4
2018-Feb-12 00:28N 50°60' E 001°19'5 8.9
2018-Feb-11 23:53N 51°03' E 001°25'3 8.6
2018-Feb-11 23:30N 51°05' E 001°29'4 8.3
2018-Feb-11 23:00N 51°08' E 001°34'4 7.8
2018-Feb-11 22:30N 51°10' E 001°39'4 7.6
2018-Feb-11 22:00N 51°13' E 001°44'4 7.5
2018-Feb-11 21:30N 51°16' E 001°47'4 7.8
2018-Feb-11 21:01N 51°19' E 001°50'4 7.9
2018-Feb-11 20:31N 51°23' E 001°53'4 8.6
2018-Feb-11 20:00N 51°27' E 001°56'4 9.0
2018-Feb-11 19:30N 51°30' E 002°01'5 8.9
2018-Feb-11 19:00N 51°33' E 002°06'5 9.2
2018-Feb-11 18:30N 51°37' E 002°11'5 9.3
2018-Feb-11 18:00N 51°40' E 002°16'144 5.6
2018-Feb-10 16:15N 53°30' E 004°49'2 8.0
2018-Feb-10 15:57N 53°31' E 004°53'136 8.8
2018-Feb-10 00:27N 53°57' E 008°38'613.2
2018-Feb-10 00:01N 53°52' E 008°43'612.5
2018-Feb-09 23:30N 53°51' E 008°54'612.5
2018-Feb-09 23:00N 53°52' E 009°04'312.0
2018-Feb-09 22:46N 53°53' E 009°09'311.8
2018-Feb-09 22:30N 53°53' E 009°14'10 9.9
2018-Feb-09 21:31N 53°45' E 009°24'5 9.3
2018-Feb-09 21:01N 53°42' E 009°30'4 8.8
2018-Feb-09 20:31N 53°38' E 009°32'8 8.2
2018-Feb-09 19:31N 53°34' E 009°44'4 8.1
2018-Feb-09 19:01N 53°33' E 009°51'6 0.3
2018-Feb-09 02:00N 53°30' E 009°59'0 0.0
2018-Feb-09 01:30N 53°30' E 009°59'0 0.0
2018-Feb-09 00:30N 53°30' E 009°59'0 0.0
2018-Feb-09 00:00N 53°30' E 009°59'0 0.0
2018-Feb-08 23:30N 53°30' E 009°59'0 0.0
2018-Feb-08 23:00N 53°30' E 009°59'0 0.0
2018-Feb-08 22:30N 53°30' E 009°59'0 0.0
2018-Feb-08 21:30N 53°30' E 009°59'0 0.0
2018-Feb-08 21:00N 53°30' E 009°59'0 0.0
2018-Feb-08 20:30N 53°30' E 009°59'0 0.0
2018-Feb-08 20:00N 53°30' E 009°59'0 0.1
2018-Feb-08 18:00N 53°30' E 009°59'  

Dump ship's entire track history